sensor_id;sensor_type;location;lat;lon;timestamp;P1;durP1;ratioP1;P2;durP2;ratioP2
9222;SDS011;7557;51.698;3.942;2023-07-08T00:00:19;4.53;;;4.20;;
9222;SDS011;7557;51.698;3.942;2023-07-08T00:02:47;4.03;;;3.67;;
9222;SDS011;7557;51.698;3.942;2023-07-08T00:05:15;4.45;;;4.05;;
9222;SDS011;7557;51.698;3.942;2023-07-08T00:07:43;4.65;;;4.18;;
9222;SDS011;7557;51.698;3.942;2023-07-08T00:10:12;4.15;;;3.75;;
9222;SDS011;7557;51.698;3.942;2023-07-08T00:12:41;3.92;;;3.72;;
9222;SDS011;7557;51.698;3.942;2023-07-08T00:15:10;5.72;;;3.85;;
9222;SDS011;7557;51.698;3.942;2023-07-08T00:17:38;4.25;;;4.05;;
9222;SDS011;7557;51.698;3.942;2023-07-08T00:20:14;4.25;;;3.90;;
9222;SDS011;7557;51.698;3.942;2023-07-08T00:22:44;4.05;;;3.72;;
9222;SDS011;7557;51.698;3.942;2023-07-08T00:25:15;4.40;;;4.03;;
9222;SDS011;7557;51.698;3.942;2023-07-08T00:27:44;4.95;;;4.25;;
9222;SDS011;7557;51.698;3.942;2023-07-08T00:30:17;4.20;;;3.90;;
9222;SDS011;7557;51.698;3.942;2023-07-08T00:32:49;4.18;;;3.80;;
9222;SDS011;7557;51.698;3.942;2023-07-08T00:35:22;4.35;;;3.95;;
9222;SDS011;7557;51.698;3.942;2023-07-08T00:37:52;4.05;;;3.75;;
9222;SDS011;7557;51.698;3.942;2023-07-08T00:40:26;4.50;;;4.20;;
9222;SDS011;7557;51.698;3.942;2023-07-08T00:42:54;5.32;;;3.92;;
9222;SDS011;7557;51.698;3.942;2023-07-08T00:45:29;5.80;;;4.13;;
9222;SDS011;7557;51.698;3.942;2023-07-08T00:48:30;5.38;;;3.97;;
9222;SDS011;7557;51.698;3.942;2023-07-08T00:51:00;3.95;;;3.65;;
9222;SDS011;7557;51.698;3.942;2023-07-08T00:53:29;4.03;;;3.67;;
9222;SDS011;7557;51.698;3.942;2023-07-08T00:55:59;5.47;;;4.10;;
9222;SDS011;7557;51.698;3.942;2023-07-08T00:58:31;6.30;;;4.00;;
9222;SDS011;7557;51.698;3.942;2023-07-08T01:01:02;4.00;;;3.70;;
9222;SDS011;7557;51.698;3.942;2023-07-08T01:03:31;3.90;;;3.65;;
9222;SDS011;7557;51.698;3.942;2023-07-08T01:06:06;4.00;;;3.70;;
9222;SDS011;7557;51.698;3.942;2023-07-08T01:08:33;3.75;;;3.50;;
9222;SDS011;7557;51.698;3.942;2023-07-08T01:11:01;5.57;;;3.67;;
9222;SDS011;7557;51.698;3.942;2023-07-08T01:13:32;4.50;;;3.95;;
9222;SDS011;7557;51.698;3.942;2023-07-08T01:16:04;4.95;;;3.72;;
9222;SDS011;7557;51.698;3.942;2023-07-08T01:18:33;4.05;;;3.72;;
9222;SDS011;7557;51.698;3.942;2023-07-08T01:21:02;5.85;;;4.03;;
9222;SDS011;7557;51.698;3.942;2023-07-08T01:23:32;3.80;;;3.50;;
9222;SDS011;7557;51.698;3.942;2023-07-08T01:26:02;4.78;;;3.80;;
9222;SDS011;7557;51.698;3.942;2023-07-08T01:28:30;4.55;;;4.15;;
9222;SDS011;7557;51.698;3.942;2023-07-08T01:30:58;3.90;;;3.70;;
9222;SDS011;7557;51.698;3.942;2023-07-08T01:33:26;4.88;;;4.15;;
9222;SDS011;7557;51.698;3.942;2023-07-08T01:35:53;4.13;;;3.83;;
9222;SDS011;7557;51.698;3.942;2023-07-08T01:38:22;4.80;;;4.35;;
9222;SDS011;7557;51.698;3.942;2023-07-08T01:40:54;4.85;;;4.03;;
9222;SDS011;7557;51.698;3.942;2023-07-08T01:43:23;5.95;;;4.25;;
9222;SDS011;7557;51.698;3.942;2023-07-08T01:45:51;3.80;;;3.60;;
9222;SDS011;7557;51.698;3.942;2023-07-08T01:48:21;4.20;;;3.90;;
9222;SDS011;7557;51.698;3.942;2023-07-08T01:50:50;4.47;;;4.18;;
9222;SDS011;7557;51.698;3.942;2023-07-08T01:53:27;4.07;;;3.78;;
9222;SDS011;7557;51.698;3.942;2023-07-08T01:55:57;4.10;;;3.90;;
9222;SDS011;7557;51.698;3.942;2023-07-08T01:58:24;4.28;;;4.07;;
9222;SDS011;7557;51.698;3.942;2023-07-08T02:00:52;5.78;;;4.40;;
9222;SDS011;7557;51.698;3.942;2023-07-08T02:03:19;4.38;;;4.07;;
9222;SDS011;7557;51.698;3.942;2023-07-08T02:05:47;4.28;;;3.95;;
9222;SDS011;7557;51.698;3.942;2023-07-08T02:08:14;4.55;;;4.22;;
9222;SDS011;7557;51.698;3.942;2023-07-08T02:10:42;4.22;;;3.95;;
9222;SDS011;7557;51.698;3.942;2023-07-08T02:13:12;4.57;;;4.18;;
9222;SDS011;7557;51.698;3.942;2023-07-08T02:15:39;4.70;;;4.40;;
9222;SDS011;7557;51.698;3.942;2023-07-08T02:18:06;4.32;;;3.92;;
9222;SDS011;7557;51.698;3.942;2023-07-08T02:20:33;3.80;;;3.42;;
9222;SDS011;7557;51.698;3.942;2023-07-08T02:23:00;4.18;;;3.80;;
9222;SDS011;7557;51.698;3.942;2023-07-08T02:25:28;4.25;;;3.95;;
9222;SDS011;7557;51.698;3.942;2023-07-08T02:27:55;4.70;;;4.40;;
9222;SDS011;7557;51.698;3.942;2023-07-08T02:30:24;4.45;;;4.15;;
9222;SDS011;7557;51.698;3.942;2023-07-08T02:32:53;4.82;;;4.28;;
9222;SDS011;7557;51.698;3.942;2023-07-08T02:35:23;4.50;;;4.20;;
9222;SDS011;7557;51.698;3.942;2023-07-08T02:37:52;4.40;;;3.97;;
9222;SDS011;7557;51.698;3.942;2023-07-08T02:40:19;4.90;;;4.53;;
9222;SDS011;7557;51.698;3.942;2023-07-08T02:42:47;4.43;;;4.20;;
9222;SDS011;7557;51.698;3.942;2023-07-08T02:45:16;4.72;;;3.67;;
9222;SDS011;7557;51.698;3.942;2023-07-08T02:47:45;4.55;;;4.22;;
9222;SDS011;7557;51.698;3.942;2023-07-08T02:50:12;4.78;;;4.38;;
9222;SDS011;7557;51.698;3.942;2023-07-08T02:52:40;4.95;;;4.55;;
9222;SDS011;7557;51.698;3.942;2023-07-08T02:55:07;4.75;;;4.38;;
9222;SDS011;7557;51.698;3.942;2023-07-08T02:57:35;3.90;;;3.70;;
9222;SDS011;7557;51.698;3.942;2023-07-08T03:00:02;4.32;;;4.13;;
9222;SDS011;7557;51.698;3.942;2023-07-08T03:02:31;5.03;;;4.63;;
9222;SDS011;7557;51.698;3.942;2023-07-08T03:05:00;4.90;;;4.50;;
9222;SDS011;7557;51.698;3.942;2023-07-08T03:07:30;4.80;;;4.50;;
9222;SDS011;7557;51.698;3.942;2023-07-08T03:09:57;4.80;;;4.57;;
9222;SDS011;7557;51.698;3.942;2023-07-08T03:12:25;4.97;;;4.45;;
9222;SDS011;7557;51.698;3.942;2023-07-08T03:14:52;5.10;;;4.70;;
9222;SDS011;7557;51.698;3.942;2023-07-08T03:17:19;5.25;;;4.85;;
9222;SDS011;7557;51.698;3.942;2023-07-08T03:19:46;5.45;;;4.97;;
9222;SDS011;7557;51.698;3.942;2023-07-08T03:22:15;5.22;;;4.93;;
9222;SDS011;7557;51.698;3.942;2023-07-08T03:24:43;5.07;;;4.68;;
9222;SDS011;7557;51.698;3.942;2023-07-08T03:27:13;5.00;;;4.60;;
9222;SDS011;7557;51.698;3.942;2023-07-08T03:29:40;5.70;;;5.30;;
9222;SDS011;7557;51.698;3.942;2023-07-08T03:32:08;5.13;;;4.82;;
9222;SDS011;7557;51.698;3.942;2023-07-08T03:34:37;5.15;;;4.85;;
9222;SDS011;7557;51.698;3.942;2023-07-08T03:37:05;5.65;;;5.25;;
9222;SDS011;7557;51.698;3.942;2023-07-08T03:39:34;6.28;;;5.78;;
9222;SDS011;7557;51.698;3.942;2023-07-08T03:42:01;6.57;;;5.95;;
9222;SDS011;7557;51.698;3.942;2023-07-08T03:44:29;5.47;;;5.07;;
9222;SDS011;7557;51.698;3.942;2023-07-08T03:46:57;5.20;;;4.90;;
9222;SDS011;7557;51.698;3.942;2023-07-08T03:49:24;5.75;;;5.35;;
9222;SDS011;7557;51.698;3.942;2023-07-08T03:51:52;5.80;;;5.43;;
9222;SDS011;7557;51.698;3.942;2023-07-08T03:54:21;5.50;;;5.10;;
9222;SDS011;7557;51.698;3.942;2023-07-08T03:56:51;5.72;;;5.28;;
9222;SDS011;7557;51.698;3.942;2023-07-08T03:59:18;5.45;;;5.05;;
9222;SDS011;7557;51.698;3.942;2023-07-08T04:01:45;5.63;;;5.22;;
9222;SDS011;7557;51.698;3.942;2023-07-08T04:04:13;5.00;;;4.70;;
9222;SDS011;7557;51.698;3.942;2023-07-08T04:06:42;5.35;;;4.95;;
9222;SDS011;7557;51.698;3.942;2023-07-08T04:09:10;5.82;;;5.38;;
9222;SDS011;7557;51.698;3.942;2023-07-08T04:11:38;5.45;;;4.95;;
9222;SDS011;7557;51.698;3.942;2023-07-08T04:14:07;4.90;;;4.50;;
9222;SDS011;7557;51.698;3.942;2023-07-08T04:16:41;5.05;;;4.60;;
9222;SDS011;7557;51.698;3.942;2023-07-08T04:19:12;5.20;;;4.68;;
9222;SDS011;7557;51.698;3.942;2023-07-08T04:21:40;4.88;;;4.57;;
9222;SDS011;7557;51.698;3.942;2023-07-08T04:24:09;4.68;;;4.43;;
9222;SDS011;7557;51.698;3.942;2023-07-08T04:26:37;5.53;;;5.10;;
9222;SDS011;7557;51.698;3.942;2023-07-08T04:29:04;4.70;;;4.43;;
9222;SDS011;7557;51.698;3.942;2023-07-08T04:31:35;4.72;;;4.32;;
9222;SDS011;7557;51.698;3.942;2023-07-08T04:34:03;6.20;;;5.13;;
9222;SDS011;7557;51.698;3.942;2023-07-08T04:36:31;5.00;;;4.70;;
9222;SDS011;7557;51.698;3.942;2023-07-08T04:38:59;5.57;;;5.18;;
9222;SDS011;7557;51.698;3.942;2023-07-08T04:41:26;5.57;;;5.03;;
9222;SDS011;7557;51.698;3.942;2023-07-08T04:43:53;5.22;;;4.70;;
9222;SDS011;7557;51.698;3.942;2023-07-08T04:46:25;8.25;;;5.10;;
9222;SDS011;7557;51.698;3.942;2023-07-08T04:49:00;5.30;;;4.80;;
9222;SDS011;7557;51.698;3.942;2023-07-08T04:51:28;5.57;;;4.93;;
9222;SDS011;7557;51.698;3.942;2023-07-08T04:53:56;5.15;;;4.60;;
9222;SDS011;7557;51.698;3.942;2023-07-08T04:56:25;5.40;;;5.00;;
9222;SDS011;7557;51.698;3.942;2023-07-08T04:59:00;5.50;;;4.97;;
9222;SDS011;7557;51.698;3.942;2023-07-08T05:01:29;5.28;;;4.85;;
9222;SDS011;7557;51.698;3.942;2023-07-08T05:03:57;4.75;;;4.45;;
9222;SDS011;7557;51.698;3.942;2023-07-08T05:06:24;5.13;;;4.72;;
9222;SDS011;7557;51.698;3.942;2023-07-08T05:08:52;5.35;;;4.88;;
9222;SDS011;7557;51.698;3.942;2023-07-08T05:11:19;4.90;;;4.50;;
9222;SDS011;7557;51.698;3.942;2023-07-08T05:13:46;5.30;;;4.82;;
9222;SDS011;7557;51.698;3.942;2023-07-08T05:16:14;4.75;;;4.45;;
9222;SDS011;7557;51.698;3.942;2023-07-08T05:18:43;4.70;;;4.22;;
9222;SDS011;7557;51.698;3.942;2023-07-08T05:21:11;5.10;;;4.70;;
9222;SDS011;7557;51.698;3.942;2023-07-08T05:23:38;5.22;;;4.80;;
9222;SDS011;7557;51.698;3.942;2023-07-08T05:26:06;5.28;;;4.78;;
9222;SDS011;7557;51.698;3.942;2023-07-08T05:28:36;5.07;;;4.32;;
9222;SDS011;7557;51.698;3.942;2023-07-08T05:31:03;4.90;;;4.60;;
9222;SDS011;7557;51.698;3.942;2023-07-08T05:33:30;4.00;;;3.78;;
9222;SDS011;7557;51.698;3.942;2023-07-08T05:35:59;5.75;;;4.05;;
9222;SDS011;7557;51.698;3.942;2023-07-08T05:38:27;4.78;;;4.43;;
9222;SDS011;7557;51.698;3.942;2023-07-08T05:40:56;4.57;;;4.32;;
9222;SDS011;7557;51.698;3.942;2023-07-08T05:43:25;4.80;;;4.40;;
9222;SDS011;7557;51.698;3.942;2023-07-08T05:45:56;4.45;;;4.20;;
9222;SDS011;7557;51.698;3.942;2023-07-08T05:48:25;5.28;;;4.88;;
9222;SDS011;7557;51.698;3.942;2023-07-08T05:50:52;4.40;;;4.18;;
9222;SDS011;7557;51.698;3.942;2023-07-08T05:53:22;5.18;;;4.75;;
9222;SDS011;7557;51.698;3.942;2023-07-08T05:55:49;4.43;;;4.20;;
9222;SDS011;7557;51.698;3.942;2023-07-08T05:58:17;4.78;;;4.38;;
9222;SDS011;7557;51.698;3.942;2023-07-08T06:00:45;4.63;;;4.18;;
9222;SDS011;7557;51.698;3.942;2023-07-08T06:03:12;4.63;;;4.32;;
9222;SDS011;7557;51.698;3.942;2023-07-08T06:05:40;5.97;;;4.88;;
9222;SDS011;7557;51.698;3.942;2023-07-08T06:08:08;4.70;;;4.40;;
9222;SDS011;7557;51.698;3.942;2023-07-08T06:10:42;4.68;;;4.28;;
9222;SDS011;7557;51.698;3.942;2023-07-08T06:13:10;5.00;;;4.50;;
9222;SDS011;7557;51.698;3.942;2023-07-08T06:15:37;4.78;;;4.22;;
9222;SDS011;7557;51.698;3.942;2023-07-08T06:18:05;6.10;;;4.13;;
9222;SDS011;7557;51.698;3.942;2023-07-08T06:20:32;5.32;;;4.88;;
9222;SDS011;7557;51.698;3.942;2023-07-08T06:23:00;4.65;;;4.35;;
9222;SDS011;7557;51.698;3.942;2023-07-08T06:25:28;4.63;;;4.32;;
9222;SDS011;7557;51.698;3.942;2023-07-08T06:27:57;5.05;;;4.63;;
9222;SDS011;7557;51.698;3.942;2023-07-08T06:30:24;4.60;;;4.30;;
9222;SDS011;7557;51.698;3.942;2023-07-08T06:32:52;5.63;;;5.22;;
9222;SDS011;7557;51.698;3.942;2023-07-08T06:35:19;5.68;;;5.25;;
9222;SDS011;7557;51.698;3.942;2023-07-08T06:37:47;4.85;;;4.50;;
9222;SDS011;7557;51.698;3.942;2023-07-08T06:40:14;5.70;;;5.30;;
9222;SDS011;7557;51.698;3.942;2023-07-08T06:42:42;5.38;;;4.97;;
9222;SDS011;7557;51.698;3.942;2023-07-08T06:45:11;5.28;;;4.85;;
9222;SDS011;7557;51.698;3.942;2023-07-08T06:47:39;4.75;;;4.45;;
9222;SDS011;7557;51.698;3.942;2023-07-08T06:50:07;7.05;;;5.32;;
9222;SDS011;7557;51.698;3.942;2023-07-08T06:52:35;5.38;;;5.00;;
9222;SDS011;7557;51.698;3.942;2023-07-08T06:55:03;6.18;;;5.60;;
9222;SDS011;7557;51.698;3.942;2023-07-08T06:57:32;4.88;;;4.57;;
9222;SDS011;7557;51.698;3.942;2023-07-08T06:59:59;5.90;;;5.40;;
9222;SDS011;7557;51.698;3.942;2023-07-08T07:02:29;5.60;;;5.20;;
9222;SDS011;7557;51.698;3.942;2023-07-08T07:04:57;5.05;;;4.75;;
9222;SDS011;7557;51.698;3.942;2023-07-08T07:07:24;6.10;;;5.40;;
9222;SDS011;7557;51.698;3.942;2023-07-08T07:09:52;6.03;;;5.35;;
9222;SDS011;7557;51.698;3.942;2023-07-08T07:12:20;6.07;;;5.57;;
9222;SDS011;7557;51.698;3.942;2023-07-08T07:14:48;5.18;;;4.75;;
9222;SDS011;7557;51.698;3.942;2023-07-08T07:17:17;5.80;;;5.30;;
9222;SDS011;7557;51.698;3.942;2023-07-08T07:19:46;7.03;;;5.65;;
9222;SDS011;7557;51.698;3.942;2023-07-08T07:22:14;7.05;;;5.47;;
9222;SDS011;7557;51.698;3.942;2023-07-08T07:24:42;5.60;;;5.10;;
9222;SDS011;7557;51.698;3.942;2023-07-08T07:27:09;5.60;;;5.20;;
9222;SDS011;7557;51.698;3.942;2023-07-08T07:29:41;5.20;;;4.80;;
9222;SDS011;7557;51.698;3.942;2023-07-08T07:32:09;5.97;;;5.55;;
9222;SDS011;7557;51.698;3.942;2023-07-08T07:34:37;6.68;;;5.53;;
9222;SDS011;7557;51.698;3.942;2023-07-08T07:37:06;6.07;;;5.53;;
9222;SDS011;7557;51.698;3.942;2023-07-08T07:39:37;5.47;;;4.93;;
9222;SDS011;7557;51.698;3.942;2023-07-08T07:42:04;5.82;;;5.25;;
9222;SDS011;7557;51.698;3.942;2023-07-08T07:44:32;5.82;;;5.32;;
9222;SDS011;7557;51.698;3.942;2023-07-08T07:46:59;5.05;;;4.75;;
9222;SDS011;7557;51.698;3.942;2023-07-08T07:49:28;5.72;;;4.65;;
9222;SDS011;7557;51.698;3.942;2023-07-08T07:51:55;5.82;;;5.50;;
9222;SDS011;7557;51.698;3.942;2023-07-08T07:54:25;5.70;;;5.30;;
9222;SDS011;7557;51.698;3.942;2023-07-08T07:56:52;6.13;;;5.53;;
9222;SDS011;7557;51.698;3.942;2023-07-08T07:59:21;5.68;;;5.18;;
9222;SDS011;7557;51.698;3.942;2023-07-08T08:01:48;5.68;;;5.18;;
9222;SDS011;7557;51.698;3.942;2023-07-08T08:04:15;6.03;;;5.47;;
9222;SDS011;7557;51.698;3.942;2023-07-08T08:06:43;6.55;;;5.93;;
9222;SDS011;7557;51.698;3.942;2023-07-08T08:09:10;6.68;;;5.90;;
9222;SDS011;7557;51.698;3.942;2023-07-08T08:11:39;6.75;;;6.15;;
9222;SDS011;7557;51.698;3.942;2023-07-08T08:14:06;7.40;;;6.43;;
9222;SDS011;7557;51.698;3.942;2023-07-08T08:16:33;6.53;;;5.93;;
9222;SDS011;7557;51.698;3.942;2023-07-08T08:19:01;7.88;;;5.63;;
9222;SDS011;7557;51.698;3.942;2023-07-08T08:21:28;7.45;;;6.28;;
9222;SDS011;7557;51.698;3.942;2023-07-08T08:23:55;6.07;;;5.55;;
9222;SDS011;7557;51.698;3.942;2023-07-08T08:26:25;5.88;;;5.40;;
9222;SDS011;7557;51.698;3.942;2023-07-08T08:28:55;6.93;;;6.40;;
9222;SDS011;7557;51.698;3.942;2023-07-08T08:31:23;6.30;;;5.70;;
9222;SDS011;7557;51.698;3.942;2023-07-08T08:33:51;7.40;;;6.70;;
9222;SDS011;7557;51.698;3.942;2023-07-08T08:36:18;6.60;;;6.03;;
9222;SDS011;7557;51.698;3.942;2023-07-08T08:38:47;7.35;;;6.10;;
9222;SDS011;7557;51.698;3.942;2023-07-08T08:41:15;6.57;;;5.72;;
9222;SDS011;7557;51.698;3.942;2023-07-08T08:43:43;7.13;;;6.47;;
9222;SDS011;7557;51.698;3.942;2023-07-08T08:46:16;7.07;;;6.38;;
9222;SDS011;7557;51.698;3.942;2023-07-08T08:48:51;5.93;;;5.40;;
9222;SDS011;7557;51.698;3.942;2023-07-08T08:51:23;7.50;;;5.68;;
9222;SDS011;7557;51.698;3.942;2023-07-08T08:53:53;6.32;;;5.72;;
9222;SDS011;7557;51.698;3.942;2023-07-08T08:56:24;7.15;;;6.05;;
9222;SDS011;7557;51.698;3.942;2023-07-08T08:58:55;7.10;;;6.43;;
9222;SDS011;7557;51.698;3.942;2023-07-08T09:01:30;6.75;;;6.18;;
9222;SDS011;7557;51.698;3.942;2023-07-08T09:03:59;6.15;;;5.63;;
9222;SDS011;7557;51.698;3.942;2023-07-08T09:06:30;6.97;;;6.28;;
9222;SDS011;7557;51.698;3.942;2023-07-08T09:09:02;6.60;;;5.88;;
9222;SDS011;7557;51.698;3.942;2023-07-08T09:11:37;6.00;;;5.50;;
9222;SDS011;7557;51.698;3.942;2023-07-08T09:14:12;6.85;;;6.20;;
9222;SDS011;7557;51.698;3.942;2023-07-08T09:16:45;6.72;;;6.18;;
9222;SDS011;7557;51.698;3.942;2023-07-08T09:19:21;5.82;;;5.20;;
9222;SDS011;7557;51.698;3.942;2023-07-08T09:21:53;6.10;;;5.47;;
9222;SDS011;7557;51.698;3.942;2023-07-08T09:24:27;6.30;;;5.80;;
9222;SDS011;7557;51.698;3.942;2023-07-08T09:26:59;6.15;;;5.70;;
9222;SDS011;7557;51.698;3.942;2023-07-08T09:29:28;7.53;;;6.25;;
9222;SDS011;7557;51.698;3.942;2023-07-08T09:31:57;6.28;;;5.78;;
9222;SDS011;7557;51.698;3.942;2023-07-08T09:34:35;6.68;;;5.93;;
9222;SDS011;7557;51.698;3.942;2023-07-08T09:37:04;6.28;;;5.68;;
9222;SDS011;7557;51.698;3.942;2023-07-08T09:39:51;8.60;;;6.38;;
9222;SDS011;7557;51.698;3.942;2023-07-08T09:42:19;6.57;;;5.85;;
9222;SDS011;7557;51.698;3.942;2023-07-08T09:44:48;7.07;;;6.40;;
9222;SDS011;7557;51.698;3.942;2023-07-08T09:47:22;6.63;;;6.03;;
9222;SDS011;7557;51.698;3.942;2023-07-08T09:49:53;6.50;;;5.97;;
9222;SDS011;7557;51.698;3.942;2023-07-08T09:52:21;6.05;;;5.40;;
9222;SDS011;7557;51.698;3.942;2023-07-08T09:54:48;5.40;;;5.00;;
9222;SDS011;7557;51.698;3.942;2023-07-08T09:57:21;6.07;;;5.63;;
9222;SDS011;7557;51.698;3.942;2023-07-08T09:59:56;6.07;;;5.40;;
9222;SDS011;7557;51.698;3.942;2023-07-08T10:02:30;7.07;;;5.55;;
9222;SDS011;7557;51.698;3.942;2023-07-08T10:05:00;7.15;;;6.35;;
9222;SDS011;7557;51.698;3.942;2023-07-08T10:07:29;6.70;;;5.07;;
9222;SDS011;7557;51.698;3.942;2023-07-08T10:09:58;6.63;;;6.10;;
9222;SDS011;7557;51.698;3.942;2023-07-08T10:12:29;5.55;;;5.05;;
9222;SDS011;7557;51.698;3.942;2023-07-08T10:14:59;7.18;;;5.57;;
9222;SDS011;7557;51.698;3.942;2023-07-08T10:17:31;6.18;;;5.60;;
9222;SDS011;7557;51.698;3.942;2023-07-08T10:19:59;6.15;;;5.60;;
9222;SDS011;7557;51.698;3.942;2023-07-08T10:22:30;7.00;;;6.40;;
9222;SDS011;7557;51.698;3.942;2023-07-08T10:25:13;6.40;;;5.63;;
9222;SDS011;7557;51.698;3.942;2023-07-08T10:27:49;8.63;;;6.60;;
9222;SDS011;7557;51.698;3.942;2023-07-08T10:30:23;6.88;;;6.18;;
9222;SDS011;7557;51.698;3.942;2023-07-08T10:33:00;6.88;;;6.28;;
9222;SDS011;7557;51.698;3.942;2023-07-08T10:35:42;6.97;;;6.28;;
9222;SDS011;7557;51.698;3.942;2023-07-08T10:38:24;6.45;;;5.88;;
9222;SDS011;7557;51.698;3.942;2023-07-08T10:41:04;6.95;;;6.43;;
9222;SDS011;7557;51.698;3.942;2023-07-08T10:43:44;7.38;;;6.65;;
9222;SDS011;7557;51.698;3.942;2023-07-08T10:46:23;8.25;;;6.43;;
9222;SDS011;7557;51.698;3.942;2023-07-08T10:49:18;6.95;;;6.28;;
9222;SDS011;7557;51.698;3.942;2023-07-08T10:52:00;7.20;;;6.53;;
9222;SDS011;7557;51.698;3.942;2023-07-08T10:54:55;6.95;;;6.28;;
9222;SDS011;7557;51.698;3.942;2023-07-08T11:00:24;7.10;;;6.28;;
9222;SDS011;7557;51.698;3.942;2023-07-08T11:03:02;6.82;;;5.78;;
9222;SDS011;7557;51.698;3.942;2023-07-08T11:05:55;6.85;;;6.25;;
9222;SDS011;7557;51.698;3.942;2023-07-08T11:08:27;8.80;;;6.50;;
9222;SDS011;7557;51.698;3.942;2023-07-08T11:10:59;6.90;;;6.30;;
9222;SDS011;7557;51.698;3.942;2023-07-08T11:13:33;6.88;;;6.15;;
9222;SDS011;7557;51.698;3.942;2023-07-08T11:16:10;6.45;;;5.95;;
9222;SDS011;7557;51.698;3.942;2023-07-08T11:18:43;7.57;;;6.60;;
9222;SDS011;7557;51.698;3.942;2023-07-08T11:21:20;8.38;;;6.95;;
9222;SDS011;7557;51.698;3.942;2023-07-08T11:23:53;7.13;;;6.53;;
9222;SDS011;7557;51.698;3.942;2023-07-08T11:26:23;7.28;;;6.57;;
9222;SDS011;7557;51.698;3.942;2023-07-08T11:28:56;7.00;;;6.40;;
9222;SDS011;7557;51.698;3.942;2023-07-08T11:31:25;7.70;;;6.93;;
9222;SDS011;7557;51.698;3.942;2023-07-08T11:33:56;6.65;;;5.93;;
9222;SDS011;7557;51.698;3.942;2023-07-08T11:36:27;7.68;;;6.25;;
9222;SDS011;7557;51.698;3.942;2023-07-08T11:38:55;8.05;;;7.25;;
9222;SDS011;7557;51.698;3.942;2023-07-08T11:41:26;9.38;;;6.72;;
9222;SDS011;7557;51.698;3.942;2023-07-08T11:43:58;8.43;;;6.30;;
9222;SDS011;7557;51.698;3.942;2023-07-08T11:46:29;6.82;;;6.20;;
9222;SDS011;7557;51.698;3.942;2023-07-08T11:49:00;7.10;;;6.55;;
9222;SDS011;7557;51.698;3.942;2023-07-08T11:51:32;7.03;;;6.32;;
9222;SDS011;7557;51.698;3.942;2023-07-08T11:54:10;7.97;;;6.68;;
9222;SDS011;7557;51.698;3.942;2023-07-08T11:56:46;7.60;;;7.05;;
9222;SDS011;7557;51.698;3.942;2023-07-08T11:59:24;8.00;;;6.72;;
9222;SDS011;7557;51.698;3.942;2023-07-08T12:01:53;6.28;;;5.65;;
9222;SDS011;7557;51.698;3.942;2023-07-08T12:04:29;7.25;;;6.00;;
9222;SDS011;7557;51.698;3.942;2023-07-08T12:07:08;8.23;;;6.53;;
9222;SDS011;7557;51.698;3.942;2023-07-08T12:09:39;6.63;;;6.03;;
9222;SDS011;7557;51.698;3.942;2023-07-08T12:12:23;5.43;;;5.13;;
9222;SDS011;7557;51.698;3.942;2023-07-08T12:14:53;6.03;;;5.53;;
9222;SDS011;7557;51.698;3.942;2023-07-08T12:17:26;6.10;;;5.50;;
9222;SDS011;7557;51.698;3.942;2023-07-08T12:19:54;6.13;;;5.40;;
9222;SDS011;7557;51.698;3.942;2023-07-08T12:22:30;6.07;;;5.57;;
9222;SDS011;7557;51.698;3.942;2023-07-08T12:24:59;5.75;;;5.35;;
9222;SDS011;7557;51.698;3.942;2023-07-08T12:27:30;6.72;;;5.60;;
9222;SDS011;7557;51.698;3.942;2023-07-08T12:29:58;6.15;;;5.68;;
9222;SDS011;7557;51.698;3.942;2023-07-08T12:32:26;5.90;;;5.50;;
9222;SDS011;7557;51.698;3.942;2023-07-08T12:34:54;5.72;;;5.43;;
9222;SDS011;7557;51.698;3.942;2023-07-08T12:37:21;6.75;;;6.32;;
9222;SDS011;7557;51.698;3.942;2023-07-08T12:39:55;5.55;;;5.15;;
9222;SDS011;7557;51.698;3.942;2023-07-08T12:42:25;6.78;;;5.65;;
9222;SDS011;7557;51.698;3.942;2023-07-08T12:44:52;5.85;;;5.45;;
9222;SDS011;7557;51.698;3.942;2023-07-08T12:47:20;5.82;;;5.28;;
9222;SDS011;7557;51.698;3.942;2023-07-08T12:49:47;5.95;;;5.45;;
9222;SDS011;7557;51.698;3.942;2023-07-08T12:52:19;5.72;;;5.30;;
9222;SDS011;7557;51.698;3.942;2023-07-08T12:54:47;5.80;;;5.40;;
9222;SDS011;7557;51.698;3.942;2023-07-08T12:57:16;5.63;;;5.07;;
9222;SDS011;7557;51.698;3.942;2023-07-08T12:59:45;6.15;;;5.55;;
9222;SDS011;7557;51.698;3.942;2023-07-08T13:02:14;7.13;;;5.03;;
9222;SDS011;7557;51.698;3.942;2023-07-08T13:04:44;5.57;;;4.97;;
9222;SDS011;7557;51.698;3.942;2023-07-08T13:07:17;5.88;;;5.47;;
9222;SDS011;7557;51.698;3.942;2023-07-08T13:09:50;5.15;;;4.65;;
9222;SDS011;7557;51.698;3.942;2023-07-08T13:12:20;5.60;;;5.10;;
9222;SDS011;7557;51.698;3.942;2023-07-08T13:14:50;5.00;;;4.63;;
9222;SDS011;7557;51.698;3.942;2023-07-08T13:17:19;6.35;;;5.78;;
9222;SDS011;7557;51.698;3.942;2023-07-08T13:19:47;5.93;;;5.43;;
9222;SDS011;7557;51.698;3.942;2023-07-08T13:22:16;5.43;;;4.95;;
9222;SDS011;7557;51.698;3.942;2023-07-08T13:24:46;6.43;;;5.93;;
9222;SDS011;7557;51.698;3.942;2023-07-08T13:27:16;7.13;;;6.43;;
9222;SDS011;7557;51.698;3.942;2023-07-08T13:29:52;6.60;;;6.03;;
9222;SDS011;7557;51.698;3.942;2023-07-08T13:32:19;6.40;;;5.55;;
9222;SDS011;7557;51.698;3.942;2023-07-08T13:34:55;6.20;;;5.63;;
9222;SDS011;7557;51.698;3.942;2023-07-08T13:37:23;6.28;;;5.72;;
9222;SDS011;7557;51.698;3.942;2023-07-08T13:39:51;7.63;;;5.43;;
9222;SDS011;7557;51.698;3.942;2023-07-08T13:42:22;6.22;;;5.75;;
9222;SDS011;7557;51.698;3.942;2023-07-08T13:44:49;5.55;;;5.05;;
9222;SDS011;7557;51.698;3.942;2023-07-08T13:47:19;6.50;;;5.88;;
9222;SDS011;7557;51.698;3.942;2023-07-08T13:49:48;7.57;;;5.85;;
9222;SDS011;7557;51.698;3.942;2023-07-08T13:52:23;6.93;;;5.75;;
9222;SDS011;7557;51.698;3.942;2023-07-08T13:54:51;6.30;;;5.70;;
9222;SDS011;7557;51.698;3.942;2023-07-08T13:57:23;7.45;;;6.47;;
9222;SDS011;7557;51.698;3.942;2023-07-08T13:59:55;7.72;;;6.93;;
9222;SDS011;7557;51.698;3.942;2023-07-08T14:02:25;8.77;;;5.85;;
9222;SDS011;7557;51.698;3.942;2023-07-08T14:04:56;5.88;;;5.20;;
9222;SDS011;7557;51.698;3.942;2023-07-08T14:07:26;6.63;;;6.00;;
9222;SDS011;7557;51.698;3.942;2023-07-08T14:09:55;7.72;;;7.00;;
9222;SDS011;7557;51.698;3.942;2023-07-08T14:12:27;6.68;;;6.07;;
9222;SDS011;7557;51.698;3.942;2023-07-08T14:14:55;6.68;;;6.00;;
9222;SDS011;7557;51.698;3.942;2023-07-08T14:17:23;6.57;;;5.97;;
9222;SDS011;7557;51.698;3.942;2023-07-08T14:19:52;6.97;;;6.20;;
9222;SDS011;7557;51.698;3.942;2023-07-08T14:22:23;7.60;;;6.85;;
9222;SDS011;7557;51.698;3.942;2023-07-08T14:24:53;8.68;;;5.93;;
9222;SDS011;7557;51.698;3.942;2023-07-08T14:27:21;6.88;;;6.00;;
9222;SDS011;7557;51.698;3.942;2023-07-08T14:29:50;6.43;;;5.68;;
9222;SDS011;7557;51.698;3.942;2023-07-08T14:32:19;7.07;;;6.50;;
9222;SDS011;7557;51.698;3.942;2023-07-08T14:34:49;7.15;;;6.47;;
9222;SDS011;7557;51.698;3.942;2023-07-08T14:37:19;6.35;;;5.93;;
9222;SDS011;7557;51.698;3.942;2023-07-08T14:39:47;7.13;;;5.53;;
9222;SDS011;7557;51.698;3.942;2023-07-08T14:42:17;6.53;;;5.80;;
9222;SDS011;7557;51.698;3.942;2023-07-08T14:44:46;5.90;;;5.50;;
9222;SDS011;7557;51.698;3.942;2023-07-08T14:47:17;6.60;;;6.05;;
9222;SDS011;7557;51.698;3.942;2023-07-08T14:49:46;6.90;;;6.30;;
9222;SDS011;7557;51.698;3.942;2023-07-08T14:52:14;7.10;;;6.43;;
9222;SDS011;7557;51.698;3.942;2023-07-08T14:54:41;6.10;;;5.60;;
9222;SDS011;7557;51.698;3.942;2023-07-08T14:57:09;7.55;;;6.95;;
9222;SDS011;7557;51.698;3.942;2023-07-08T14:59:40;6.25;;;5.65;;
9222;SDS011;7557;51.698;3.942;2023-07-08T15:02:16;15.50;;;14.52;;
9222;SDS011;7557;51.698;3.942;2023-07-08T15:04:48;7.90;;;7.28;;
9222;SDS011;7557;51.698;3.942;2023-07-08T15:07:18;12.52;;;11.77;;
9222;SDS011;7557;51.698;3.942;2023-07-08T15:09:46;10.77;;;10.02;;
9222;SDS011;7557;51.698;3.942;2023-07-08T15:12:13;8.90;;;8.25;;
9222;SDS011;7557;51.698;3.942;2023-07-08T15:14:40;8.50;;;7.80;;
9222;SDS011;7557;51.698;3.942;2023-07-08T15:17:10;9.82;;;9.20;;
9222;SDS011;7557;51.698;3.942;2023-07-08T15:19:44;6.20;;;5.80;;
9222;SDS011;7557;51.698;3.942;2023-07-08T15:22:11;7.38;;;6.88;;
9222;SDS011;7557;51.698;3.942;2023-07-08T15:24:39;9.50;;;7.10;;
9222;SDS011;7557;51.698;3.942;2023-07-08T15:27:08;9.38;;;8.82;;
9222;SDS011;7557;51.698;3.942;2023-07-08T15:29:37;11.77;;;11.15;;
9222;SDS011;7557;51.698;3.942;2023-07-08T15:32:08;10.70;;;9.90;;
9222;SDS011;7557;51.698;3.942;2023-07-08T15:34:39;12.60;;;11.88;;